createdAt,value
2019-05-06T00:01:56.318Z,99.90
2019-05-06T00:04:26.911Z,99.90
2019-05-06T00:06:57.308Z,99.90
2019-05-06T00:09:27.683Z,99.90
2019-05-06T00:11:58.135Z,99.90
2019-05-06T00:14:28.486Z,99.90
2019-05-06T00:16:59.008Z,99.90
2019-05-06T00:19:29.598Z,99.90
2019-05-06T00:22:00.149Z,99.90
2019-05-06T00:24:35.954Z,99.90
2019-05-06T00:27:18.187Z,99.90
2019-05-06T00:29:49.213Z,99.90
2019-05-06T00:32:19.729Z,99.90
2019-05-06T00:34:50.232Z,99.90
2019-05-06T00:37:20.734Z,99.90
2019-05-06T00:40:00.329Z,99.90
2019-05-06T00:42:34.388Z,99.90
2019-05-06T00:45:05.487Z,99.90
2019-05-06T00:47:35.865Z,99.90
2019-05-06T00:50:09.029Z,99.90
2019-05-06T00:52:41.635Z,99.90
2019-05-06T00:55:13.699Z,99.90
2019-05-06T00:57:44.493Z,99.90
2019-05-06T01:00:24.390Z,99.90
2019-05-06T01:02:57.785Z,99.90
2019-05-06T01:05:28.305Z,99.90
2019-05-06T01:07:59.057Z,99.90
2019-05-06T01:10:34.423Z,99.90
2019-05-06T01:13:26.444Z,99.90
2019-05-06T01:15:57.050Z,99.90
2019-05-06T01:18:27.590Z,99.90
2019-05-06T01:21:10.366Z,99.90
2019-05-06T01:23:45.303Z,99.90
2019-05-06T01:26:17.036Z,99.90
2019-05-06T01:28:47.583Z,99.90
2019-05-06T01:31:18.272Z,99.90
2019-05-06T01:33:48.652Z,99.90
2019-05-06T01:36:19.078Z,99.90
2019-05-06T01:38:57.526Z,99.90
2019-05-06T01:41:49.590Z,99.90
2019-05-06T01:44:20.466Z,99.90
2019-05-06T01:46:50.924Z,99.90
2019-05-06T01:49:21.357Z,99.90
2019-05-06T01:51:51.750Z,99.90
2019-05-06T01:54:22.149Z,99.90
2019-05-06T01:56:54.670Z,99.90
2019-05-06T01:59:25.036Z,99.90
2019-05-06T02:02:00.793Z,99.90
2019-05-06T02:04:27.687Z,99.90
2019-05-06T02:06:57.934Z,99.90
2019-05-06T02:09:28.361Z,99.90
2019-05-06T02:11:58.822Z,99.90
2019-05-06T02:14:29.351Z,99.90
2019-05-06T02:16:59.698Z,99.90
2019-05-06T02:19:30.035Z,99.90
2019-05-06T02:22:13.485Z,99.90
2019-05-06T02:24:49.976Z,99.90
2019-05-06T02:27:20.400Z,99.90
2019-05-06T02:29:56.411Z,99.90
2019-05-06T02:32:48.161Z,99.90
2019-05-06T02:35:35.458Z,99.90
2019-05-06T02:38:07.577Z,99.90
2019-05-06T02:40:37.990Z,99.90
2019-05-06T02:43:08.465Z,99.90
2019-05-06T02:45:38.742Z,99.90
2019-05-06T02:48:15.057Z,99.90
2019-05-06T02:51:24.403Z,99.90
2019-05-06T02:53:54.998Z,99.90
2019-05-06T02:56:25.484Z,99.90
2019-05-06T02:58:55.897Z,99.90
2019-05-06T03:01:26.300Z,99.90
2019-05-06T03:03:56.687Z,99.90
2019-05-06T03:06:27.615Z,99.90
2019-05-06T03:08:58.198Z,99.90
2019-05-06T03:11:28.522Z,99.90
2019-05-06T03:13:58.923Z,99.90
2019-05-06T03:16:29.396Z,99.90
2019-05-06T03:18:59.803Z,99.90
2019-05-06T03:21:45.118Z,99.90
2019-05-06T03:24:49.729Z,99.90
2019-05-06T03:27:20.158Z,99.90
2019-05-06T03:29:53.466Z,99.90
2019-05-06T03:32:29.752Z,99.90
2019-05-06T03:35:15.825Z,99.90
2019-05-06T03:37:27.033Z,99.90
2019-05-06T03:39:57.452Z,99.90
2019-05-06T03:42:27.895Z,99.90
2019-05-06T03:45:04.175Z,99.90
2019-05-06T03:47:54.244Z,99.90
2019-05-06T03:50:24.227Z,99.90
2019-05-06T03:52:56.472Z,99.90
2019-05-06T03:55:27.992Z,99.90
2019-05-06T03:57:58.387Z,99.90
2019-05-06T04:00:28.769Z,99.90
2019-05-06T04:02:59.245Z,99.90
2019-05-06T04:05:29.700Z,99.90
2019-05-06T04:08:03.608Z,99.90
2019-05-06T04:10:33.810Z,99.90
2019-05-06T04:13:06.775Z,99.90
2019-05-06T04:16:03.788Z,99.90
2019-05-06T04:18:36.320Z,99.90
2019-05-06T04:21:16.746Z,99.90
2019-05-06T04:23:59.268Z,99.90
2019-05-06T04:26:48.766Z,99.90
2019-05-06T04:29:19.288Z,99.90
2019-05-06T04:31:49.874Z,99.90
2019-05-06T04:34:23.221Z,99.90
2019-05-06T04:36:53.532Z,99.90
2019-05-06T04:39:24.182Z,99.90
2019-05-06T04:41:55.154Z,99.90
2019-05-06T04:44:25.569Z,99.90
2019-05-06T04:46:56.384Z,99.90
2019-05-06T04:49:26.807Z,99.90
2019-05-06T04:51:57.112Z,99.90
2019-05-06T04:54:28.146Z,99.90
2019-05-06T04:56:58.574Z,99.90
2019-05-06T04:59:29.443Z,99.90
2019-05-06T05:02:02.502Z,99.90
2019-05-06T05:04:36.282Z,99.90
2019-05-06T05:07:04.332Z,99.90
2019-05-06T05:09:34.812Z,99.90
2019-05-06T05:12:13.335Z,99.90
2019-05-06T05:14:59.969Z,99.90
2019-05-06T05:17:46.811Z,99.90
2019-05-06T05:20:17.328Z,99.90
2019-05-06T05:22:48.227Z,99.90
2019-05-06T05:25:18.624Z,99.90
2019-05-06T05:27:49.035Z,99.90
2019-05-06T05:30:19.628Z,99.90
2019-05-06T05:32:52.028Z,99.90
2019-05-06T05:35:22.733Z,99.90
2019-05-06T05:37:53.753Z,99.90
2019-05-06T05:40:24.189Z,99.90
2019-05-06T05:43:04.405Z,99.90
2019-05-06T05:45:35.073Z,99.90
2019-05-06T05:48:12.410Z,99.90
2019-05-06T05:50:43.619Z,99.90
2019-05-06T05:53:13.993Z,99.90
2019-05-06T05:55:44.422Z,99.90
2019-05-06T05:58:14.855Z,99.90
2019-05-06T06:00:45.584Z,99.90
2019-05-06T06:03:16.106Z,99.90
2019-05-06T06:05:46.546Z,99.90
2019-05-06T06:08:16.959Z,99.90
2019-05-06T06:11:06.203Z,99.90
2019-05-06T06:13:36.632Z,99.90
2019-05-06T06:16:20.599Z,99.90
2019-05-06T06:19:12.789Z,99.90
2019-05-06T06:21:47.479Z,99.90
2019-05-06T06:24:25.396Z,99.90
2019-05-06T06:26:55.871Z,96.90
2019-05-06T06:29:26.351Z,99.40
2019-05-06T06:32:14.794Z,97.10
2019-05-06T06:35:09.958Z,93.30
2019-05-06T06:38:05.860Z,94.10
2019-05-06T06:40:36.361Z,93.50
2019-05-06T06:43:12.446Z,92.70
2019-05-06T06:45:42.987Z,91.70
2019-05-06T06:48:13.487Z,88.90
2019-05-06T06:50:44.100Z,86.40
2019-05-06T06:53:14.596Z,81.60
2019-05-06T06:55:45.024Z,84.50
2019-05-06T06:58:24.171Z,83.00
2019-05-06T07:01:33.176Z,77.80
2019-05-06T07:04:11.153Z,77.30
2019-05-06T07:06:45.872Z,74.30
2019-05-06T07:09:16.246Z,75.00
2019-05-06T07:11:46.702Z,71.50
2019-05-06T07:14:17.096Z,71.50
2019-05-06T07:16:47.487Z,68.10
2019-05-06T07:19:23.000Z,70.30
2019-05-06T07:21:57.666Z,68.50
2019-05-06T07:24:28.141Z,66.40
2019-05-06T07:27:12.557Z,66.70
2019-05-06T07:29:48.361Z,65.10
2019-05-06T07:32:14.975Z,64.30
2019-05-06T07:34:45.438Z,63.60
2019-05-06T07:37:15.874Z,62.90
2019-05-06T07:39:46.346Z,63.80
2019-05-06T07:42:28.440Z,63.10
2019-05-06T07:45:17.227Z,62.20
2019-05-06T07:47:53.053Z,56.80
2019-05-06T07:50:23.368Z,55.20
2019-05-06T07:53:09.913Z,54.80
2019-05-06T07:55:42.469Z,55.90
2019-05-06T07:58:13.750Z,53.10
2019-05-06T08:00:44.471Z,48.10
2019-05-06T08:03:14.976Z,46.20
2019-05-06T08:05:55.187Z,48.90
2019-05-06T08:08:17.543Z,49.50
2019-05-06T08:10:47.952Z,49.50
2019-05-06T08:13:18.435Z,44.70
2019-05-06T08:15:48.862Z,46.40
2019-05-06T08:18:19.247Z,42.10
2019-05-06T08:20:51.868Z,38.50
2019-05-06T08:23:32.592Z,40.40
2019-05-06T08:26:12.553Z,39.50
2019-05-06T08:28:40.980Z,37.50
2019-05-06T08:31:07.924Z,36.80
2019-05-06T08:33:38.355Z,40.20
2019-05-06T08:36:14.855Z,43.90
2019-05-06T08:38:56.844Z,46.00
2019-05-06T08:41:28.738Z,45.70
2019-05-06T08:43:59.189Z,46.30
2019-05-06T08:46:29.522Z,47.60
2019-05-06T08:48:59.911Z,47.10
2019-05-06T08:51:45.426Z,45.50
2019-05-06T08:54:29.015Z,46.40
2019-05-06T08:56:59.509Z,46.90
2019-05-06T08:59:31.921Z,48.00
2019-05-06T09:02:03.168Z,46.10
2019-05-06T09:04:33.810Z,42.70
2019-05-06T09:07:04.198Z,40.40
2019-05-06T09:09:34.667Z,41.50
2019-05-06T09:12:05.116Z,41.10
2019-05-06T09:14:35.564Z,39.80
2019-05-06T09:17:07.046Z,38.40
2019-05-06T09:19:37.403Z,40.40
2019-05-06T09:22:07.848Z,38.60
2019-05-06T09:24:38.416Z,37.80
2019-05-06T09:27:20.004Z,36.70
2019-05-06T09:29:56.426Z,34.10
2019-05-06T09:32:36.008Z,35.40
2019-05-06T09:35:07.996Z,34.90
2019-05-06T09:37:38.423Z,35.70
2019-05-06T09:40:12.687Z,35.20
2019-05-06T09:42:43.286Z,35.10
2019-05-06T09:45:13.911Z,36.00
2019-05-06T09:48:06.129Z,37.40
2019-05-06T09:50:46.034Z,37.80
2019-05-06T09:53:22.954Z,39.00
2019-05-06T09:56:13.022Z,40.80
2019-05-06T09:58:44.429Z,38.20
2019-05-06T10:01:15.976Z,40.10
2019-05-06T10:03:46.374Z,39.30
2019-05-06T10:06:16.803Z,38.50
2019-05-06T10:08:47.142Z,36.60
2019-05-06T10:11:17.649Z,36.80
2019-05-06T10:13:48.150Z,35.20
2019-05-06T10:16:18.640Z,35.30
2019-05-06T10:18:49.070Z,36.80
2019-05-06T10:21:19.519Z,38.00
2019-05-06T10:23:50.098Z,39.70
2019-05-06T10:26:20.540Z,39.70
2019-05-06T10:28:57.449Z,41.00
2019-05-06T10:31:29.553Z,41.60
2019-05-06T10:34:13.934Z,40.20
2019-05-06T10:37:18.044Z,41.30
2019-05-06T10:39:43.449Z,41.70
2019-05-06T10:42:19.509Z,39.80
2019-05-06T10:45:27.856Z,37.90
2019-05-06T10:47:59.043Z,38.90
2019-05-06T10:50:33.007Z,42.00
2019-05-06T10:53:23.046Z,40.90
2019-05-06T10:55:57.908Z,38.50
2019-05-06T10:58:28.389Z,37.90
2019-05-06T11:01:12.292Z,38.70
2019-05-06T11:03:42.154Z,37.50
2019-05-06T11:06:13.130Z,37.60
2019-05-06T11:08:43.756Z,34.10
2019-05-06T11:11:20.039Z,31.30
2019-05-06T11:13:46.415Z,31.50
2019-05-06T11:16:17.143Z,32.40
2019-05-06T11:18:47.629Z,33.20
2019-05-06T11:21:18.025Z,33.60
2019-05-06T11:23:48.483Z,35.90
2019-05-06T11:26:18.953Z,38.80
2019-05-06T11:28:53.170Z,38.90
2019-05-06T11:31:46.906Z,40.30
2019-05-06T11:34:48.355Z,41.40
2019-05-06T11:37:19.877Z,43.00
2019-05-06T11:39:52.628Z,42.80
2019-05-06T11:42:28.918Z,43.70
2019-05-06T11:44:54.785Z,44.90
2019-05-06T11:47:25.238Z,44.70
2019-05-06T11:49:57.471Z,44.60
2019-05-06T11:52:28.183Z,44.80
2019-05-06T11:54:58.466Z,44.60
2019-05-06T11:57:29.014Z,44.00
2019-05-06T11:59:59.524Z,45.20
2019-05-06T12:02:29.944Z,44.30
2019-05-06T12:05:02.343Z,44.80
2019-05-06T12:07:33.243Z,44.10
2019-05-06T12:10:03.821Z,44.90
2019-05-06T12:12:34.249Z,44.50
2019-05-06T12:15:07.219Z,45.00
2019-05-06T12:17:37.288Z,43.90
2019-05-06T12:20:08.492Z,45.10
2019-05-06T12:22:38.992Z,45.20
2019-05-06T12:25:12.673Z,45.00
2019-05-06T12:27:45.494Z,45.20
2019-05-06T12:30:23.289Z,44.50
2019-05-06T12:33:13.011Z,45.50
2019-05-06T12:35:47.406Z,43.80
2019-05-06T12:38:30.698Z,42.80
2019-05-06T12:40:59.991Z,43.30
2019-05-06T12:43:43.040Z,43.70
2019-05-06T12:46:22.553Z,43.20
2019-05-06T12:48:53.039Z,41.90
2019-05-06T12:51:23.492Z,42.50
2019-05-06T12:53:53.830Z,41.90
2019-05-06T12:56:24.930Z,42.10
2019-05-06T12:58:55.281Z,38.50
2019-05-06T13:01:25.679Z,40.20
2019-05-06T13:03:56.126Z,37.40
2019-05-06T13:06:26.724Z,38.60
2019-05-06T13:09:01.847Z,40.30
2019-05-06T13:11:29.305Z,37.70
2019-05-06T13:14:01.020Z,39.80
2019-05-06T13:16:33.497Z,38.60
2019-05-06T13:19:03.928Z,38.50
2019-05-06T13:21:34.519Z,37.70
2019-05-06T13:24:06.231Z,37.50
2019-05-06T13:26:36.714Z,37.20
2019-05-06T13:29:16.322Z,38.80
2019-05-06T13:31:46.768Z,39.60
2019-05-06T13:34:18.882Z,40.40
2019-05-06T13:36:49.644Z,41.70
2019-05-06T13:39:20.133Z,44.10
2019-05-06T13:41:52.686Z,45.60
2019-05-06T13:44:23.058Z,44.70
2019-05-06T13:46:55.114Z,46.80
2019-05-06T13:49:35.929Z,46.40
2019-05-06T13:52:08.672Z,46.30
2019-05-06T13:54:39.052Z,45.30
2019-05-06T13:57:09.510Z,46.40
2019-05-06T13:59:39.826Z,45.70
2019-05-06T14:02:43.626Z,45.40
2019-05-06T14:05:14.018Z,44.80
2019-05-06T14:07:44.533Z,45.40
2019-05-06T14:10:15.388Z,43.90
2019-05-06T14:12:45.826Z,43.60
2019-05-06T14:15:17.255Z,45.70
2019-05-06T14:17:47.721Z,46.30
2019-05-06T14:20:18.435Z,46.50
2019-05-06T14:22:48.921Z,46.20
2019-05-06T14:25:52.686Z,45.40
2019-05-06T14:28:47.265Z,46.50
2019-05-06T14:31:36.571Z,47.30
2019-05-06T14:34:07.003Z,46.60
2019-05-06T14:36:37.394Z,47.70
2019-05-06T14:39:14.254Z,48.60
2019-05-06T14:41:46.731Z,49.00
2019-05-06T14:44:17.081Z,51.10
2019-05-06T14:46:59.867Z,51.20
2019-05-06T14:49:32.366Z,52.50
2019-05-06T14:52:02.840Z,53.90
2019-05-06T14:54:35.144Z,53.90
2019-05-06T14:57:12.774Z,54.70
2019-05-06T14:59:43.216Z,54.10
2019-05-06T15:02:13.629Z,54.10
2019-05-06T15:04:44.089Z,53.60
2019-05-06T15:07:14.504Z,52.20
2019-05-06T15:09:58.087Z,52.80
2019-05-06T15:12:16.936Z,52.70
2019-05-06T15:14:47.398Z,52.80
2019-05-06T15:17:17.930Z,53.00
2019-05-06T15:19:48.386Z,53.90
2019-05-06T15:22:18.965Z,52.90
2019-05-06T15:24:49.353Z,54.00
2019-05-06T15:27:19.784Z,53.30
2019-05-06T15:29:53.286Z,51.80
2019-05-06T15:32:28.386Z,51.60
2019-05-06T15:35:05.898Z,52.40
2019-05-06T15:37:42.990Z,51.30
2019-05-06T15:40:13.648Z,50.70
2019-05-06T15:42:44.043Z,50.80
2019-05-06T15:45:14.717Z,52.00
2019-05-06T15:47:45.655Z,50.30
2019-05-06T15:50:16.312Z,49.20
2019-05-06T15:52:46.723Z,49.30
2019-05-06T15:55:17.178Z,47.90
2019-05-06T15:57:47.614Z,46.90
2019-05-06T16:00:22.561Z,46.90
2019-05-06T16:02:53.310Z,46.40
2019-05-06T16:05:26.309Z,46.00
2019-05-06T16:07:56.069Z,47.20
2019-05-06T16:10:26.505Z,46.90
2019-05-06T16:12:56.963Z,47.50
2019-05-06T16:15:27.331Z,46.80
2019-05-06T16:17:57.688Z,47.90
2019-05-06T16:20:28.196Z,50.50
2019-05-06T16:23:14.084Z,47.40
2019-05-06T16:25:44.869Z,50.30
2019-05-06T16:28:15.396Z,49.10
2019-05-06T16:30:45.836Z,49.30
2019-05-06T16:33:18.840Z,49.20
2019-05-06T16:35:48.384Z,49.80
2019-05-06T16:38:18.895Z,49.70
2019-05-06T16:40:49.327Z,50.00
2019-05-06T16:43:21.987Z,50.40
2019-05-06T16:45:53.197Z,51.30
2019-05-06T16:48:24.164Z,52.00
2019-05-06T16:50:54.570Z,52.90
2019-05-06T16:53:24.937Z,53.40
2019-05-06T16:56:07.035Z,52.70
2019-05-06T16:58:40.148Z,54.20
2019-05-06T17:01:14.894Z,54.70
2019-05-06T17:04:20.162Z,56.20
2019-05-06T17:06:52.406Z,55.70
2019-05-06T17:09:27.081Z,54.90
2019-05-06T17:11:55.199Z,55.10
2019-05-06T17:14:25.666Z,56.80
2019-05-06T17:16:56.266Z,57.30
2019-05-06T17:19:26.721Z,57.10
2019-05-06T17:21:57.157Z,59.00
2019-05-06T17:24:27.561Z,58.90
2019-05-06T17:26:58.572Z,58.80
2019-05-06T17:29:46.341Z,59.20
2019-05-06T17:32:44.821Z,59.80
2019-05-06T17:35:17.572Z,59.80
2019-05-06T17:38:04.442Z,60.30
2019-05-06T17:40:34.909Z,60.60
2019-05-06T17:43:05.337Z,62.20
2019-05-06T17:46:02.365Z,62.70
2019-05-06T17:48:42.455Z,61.00
2019-05-06T17:51:14.742Z,61.80
2019-05-06T17:53:48.462Z,61.60
2019-05-06T17:56:18.878Z,61.40
2019-05-06T17:58:49.332Z,61.60
2019-05-06T18:01:23.626Z,62.90
2019-05-06T18:03:54.152Z,62.10
2019-05-06T18:06:24.693Z,63.60
2019-05-06T18:08:54.988Z,65.20
2019-05-06T18:11:25.438Z,66.70
2019-05-06T18:13:55.796Z,66.20
2019-05-06T18:16:26.269Z,69.30
2019-05-06T18:18:56.630Z,70.00
2019-05-06T18:21:27.159Z,72.40
2019-05-06T18:23:57.478Z,75.50
2019-05-06T18:26:29.906Z,78.20
2019-05-06T18:29:00.376Z,83.40
2019-05-06T18:31:32.886Z,88.10
2019-05-06T18:34:06.141Z,90.90
2019-05-06T18:36:35.156Z,94.20
2019-05-06T18:39:07.353Z,98.10
2019-05-06T18:41:38.005Z,99.90
2019-05-06T18:44:08.370Z,99.90
2019-05-06T18:46:39.035Z,99.90
2019-05-06T18:49:09.451Z,99.90
2019-05-06T18:51:39.818Z,99.90
2019-05-06T18:54:12.378Z,99.90
2019-05-06T18:56:43.121Z,99.90
2019-05-06T18:59:13.646Z,99.90
2019-05-06T19:01:44.065Z,99.90
2019-05-06T19:04:29.237Z,99.90
2019-05-06T19:07:12.322Z,99.90
2019-05-06T19:09:49.456Z,99.90
2019-05-06T19:12:29.279Z,99.90
2019-05-06T19:14:52.536Z,99.90
2019-05-06T19:17:23.455Z,99.90
2019-05-06T19:19:53.951Z,99.90
2019-05-06T19:22:24.364Z,99.90
2019-05-06T19:24:54.802Z,99.90
2019-05-06T19:27:25.230Z,99.90
2019-05-06T19:29:55.587Z,99.90
2019-05-06T19:32:27.982Z,99.90
2019-05-06T19:34:58.443Z,99.90
2019-05-06T19:37:28.789Z,99.90
2019-05-06T19:39:59.150Z,99.90
2019-05-06T19:42:42.211Z,99.90
2019-05-06T19:45:02.540Z,99.90
2019-05-06T19:47:34.172Z,99.90
2019-05-06T19:50:04.794Z,99.90
2019-05-06T19:52:35.248Z,99.90
2019-05-06T19:55:06.368Z,99.90
2019-05-06T19:57:36.815Z,99.90
2019-05-06T20:00:07.527Z,99.90
2019-05-06T20:02:37.942Z,99.90
2019-05-06T20:05:15.735Z,99.90
2019-05-06T20:08:04.152Z,99.90
2019-05-06T20:10:52.899Z,99.90
2019-05-06T20:13:23.371Z,99.90
2019-05-06T20:15:53.964Z,99.90
2019-05-06T20:18:24.462Z,99.90
2019-05-06T20:20:54.750Z,99.90
2019-05-06T20:23:25.205Z,99.90
2019-05-06T20:25:55.520Z,99.90
2019-05-06T20:28:26.019Z,99.90
2019-05-06T20:30:56.450Z,99.90
2019-05-06T20:33:26.860Z,99.90
2019-05-06T20:35:57.290Z,99.90
2019-05-06T20:38:27.856Z,99.90
2019-05-06T20:40:58.277Z,99.90
2019-05-06T20:43:28.613Z,99.90
2019-05-06T20:45:58.984Z,99.90
2019-05-06T20:48:29.408Z,99.90
2019-05-06T20:50:59.870Z,99.90
2019-05-06T20:53:32.453Z,99.90
2019-05-06T20:56:02.866Z,99.90
2019-05-06T20:58:33.312Z,99.90
2019-05-06T21:01:03.699Z,99.90
2019-05-06T21:03:34.083Z,99.90
2019-05-06T21:06:04.565Z,99.90
2019-05-06T21:08:34.914Z,99.90
2019-05-06T21:11:05.292Z,99.90
2019-05-06T21:13:35.763Z,99.90
2019-05-06T21:16:06.192Z,99.90
2019-05-06T21:18:36.637Z,99.90
2019-05-06T21:21:06.982Z,99.90
2019-05-06T21:23:37.377Z,99.90
2019-05-06T21:26:07.842Z,99.90
2019-05-06T21:28:38.255Z,99.90
2019-05-06T21:31:08.738Z,99.90
2019-05-06T21:33:39.124Z,99.90
2019-05-06T21:36:09.598Z,99.90
2019-05-06T21:38:40.065Z,99.90
2019-05-06T21:41:12.393Z,99.90
2019-05-06T21:43:49.077Z,99.90
2019-05-06T21:46:14.924Z,99.90
2019-05-06T21:48:45.332Z,99.90
2019-05-06T21:51:15.723Z,99.90
2019-05-06T21:53:46.131Z,99.90
2019-05-06T21:56:16.645Z,99.90
2019-05-06T21:58:46.995Z,99.90
2019-05-06T22:01:17.469Z,99.90
2019-05-06T22:03:50.670Z,99.90
2019-05-06T22:06:22.488Z,99.90
2019-05-06T22:08:53.077Z,99.90
2019-05-06T22:11:24.530Z,99.90
2019-05-06T22:14:01.147Z,99.90
2019-05-06T22:16:27.040Z,99.90
2019-05-06T22:18:57.575Z,99.90
2019-05-06T22:21:28.025Z,99.90
2019-05-06T22:23:59.536Z,99.90
2019-05-06T22:26:32.440Z,99.90
2019-05-06T22:29:03.109Z,99.90
2019-05-06T22:31:33.571Z,99.90
2019-05-06T22:34:03.994Z,99.90
2019-05-06T22:36:34.451Z,99.90
2019-05-06T22:39:06.531Z,99.90
2019-05-06T22:41:36.947Z,99.90
2019-05-06T22:44:13.656Z,99.90
2019-05-06T22:46:39.464Z,99.90
2019-05-06T22:49:09.887Z,99.90
2019-05-06T22:51:42.483Z,99.90
2019-05-06T22:54:12.458Z,99.90
2019-05-06T22:56:42.901Z,99.90
2019-05-06T22:59:13.330Z,99.90
2019-05-06T23:01:59.655Z,99.90
2019-05-06T23:04:32.419Z,99.90
2019-05-06T23:07:04.807Z,99.90
2019-05-06T23:09:35.116Z,99.90
2019-05-06T23:12:05.714Z,99.90
2019-05-06T23:14:37.351Z,99.90
2019-05-06T23:17:07.825Z,99.90
2019-05-06T23:19:38.217Z,99.90
2019-05-06T23:22:08.544Z,99.90
2019-05-06T23:24:38.967Z,99.90
2019-05-06T23:27:09.241Z,99.90
2019-05-06T23:29:39.595Z,99.90
2019-05-06T23:32:13.786Z,99.90
2019-05-06T23:34:43.261Z,99.90
2019-05-06T23:37:22.926Z,99.90
2019-05-06T23:40:46.946Z,99.90
2019-05-06T23:44:12.535Z,99.90
2019-05-06T23:47:37.454Z,99.90
2019-05-06T23:51:01.835Z,99.90
2019-05-06T23:54:26.580Z,99.90
2019-05-06T23:56:54.700Z,99.90
2019-05-06T23:59:25.148Z,99.90
